MARATON MTB

Organizator:
LZS SKRA Paterek, Gmina Nakło nad Notecią
Data:
2019-11-03
Miejsce:
Nakło nad Notecią
Dystans:
35 km
Zgłoszonych:
149
Wystartowało:
141
Nie ukończyło:
0
Ukończyło:
141
Na trasie:
0
Pełne wyniki :
Wyniki uproszczone:
Wyniki nieoficjalne !!!
Klasyfikacje w punktach pomiarowych: Start | Meta
Klasyfikacje wg kategorii: Wszyscy | K-Open | M-Open | Mieszkanka powiatu Nakielskiego | Mieszkaniec powiatu Nakielskiego | K1 | M1 | K2 | M2 | M3 | K3 | M4 | K4 | M5 | K5 | M6

Klasyfikacja wg czasów brutto.
MscZawodnikNumerKlubMiejscowośćKrajKategoriaMkatK/MCzas startuCzas
netto
35km
Czas
brutto
35km
Różn.Tempo
min/km
Tempo
km/h
       
1BELT Kacper 1006MTB Eldar ŚwiecieSULNOWOM21M 100:00:0101:14:56.6501:14:57.85 2:0828
2ŁOWIGUS Adam 1070ŁOCHOWOM31M 200:00:0201:16:47.8501:16:49.90+00:01:522:1127.3
3TUSZYŃSKI Mikołaj 1107MTB Racing TuszyńskiKOWALEWO POMORSKIEM32M 300:00:0101:16:50.4501:16:52.30+00:01:542:1127.3
4KULPA Aleksander 1062CSU Racing Team BydgoszczBYDGOSZCZM33M 400:00:0401:17:02.4501:17:06.50+00:02:082:1227.3
5TORZEWSKI Jacek 1104AMSports Bydgoszcz MTB TeamBYDGOSZCZM41M 500:00:0201:17:50.6001:17:52.85+00:02:552:1327
6MAŁAS Marcin 1071AZS Politrchnika GdańskaBYDGOSZCZM22M 600:00:0301:18:13.7501:18:17.35+00:03:192:1426.8
7GĘSICKI Remigiusz 1133SISU-OWB TeamGOLUB-DOBRZYŃM23M 700:00:0101:18:32.2501:18:33.45+00:03:352:1426.7
8JANICKI Rafał 1129Skra PaterekBYDGOSZCZM34M 800:00:0001:18:32.9501:18:33.85+00:03:362:1426.7
9BETHKE Slawomir 1007SISU-OWB teamBYDGOSZCZM24M 900:00:0201:18:40.7001:18:43.50+00:03:452:1426.7
10KONIAIEV Volodymyr 1131TARPOL TEAMKREMENCHUKM35M 1000:00:0301:20:13.2001:20:16.50+00:05:182:1726.2
11TORZEWSKI Sebastian 1105AMSports Bydgoszcz MTB TeamBYDGOSZCZM25M 1100:00:0201:20:14.1001:20:16.85+00:05:192:1726.2
12ZUREL Michał 1117CykliściRypinRYPINM36M 1200:00:0301:20:15.7501:20:18.95+00:05:212:1726.2
13KRZEŚNIAK Roman 1060Bart J-BikeŚWIECIEM37M 1300:00:0701:20:43.8001:20:50.85+00:05:532:1826
14KOWSZEWICZ Szymon 1055CSU Racing Team BydgoszczBYDGOSZCZM38M 1400:00:0701:21:20.8501:21:28.45+00:06:302:1925.8
15BELT Jaroslaw 1005MTB Eldar ŚwiecieSULNOWOM51M 1500:00:0401:21:47.9001:21:52.35+00:06:542:2025.7
16FARION Paweł 1146Orłów Racing TeamBYDGOSZCZM39M 1600:00:2501:21:27.1501:21:52.80+00:06:542:1925.8
17GORTAT Bogumił 1036Olite Zero RH+ Racing TeamKOBYLNICAM310M 1700:00:0301:21:50.6001:21:54.15+00:06:562:2025.7
18NEUMANN Jerzy 1132Euro Bike Kaczmarek Electrik TeamSWARZĘDZM61M 1800:00:0201:22:49.9501:22:52.30+00:07:542:2225.4
19BIELINSKI Bogumił 1010CTbike.plWILCZEM311M 1900:00:0201:22:56.3501:22:59.00+00:08:012:2225.3
20WARGUŁA Waldemar 1108Kibolski KSRAKOWNIAM312M 2000:00:0801:22:56.4501:23:04.55+00:08:062:2225.3
21GRZYBEK Marcin 1039ZNINM42M 2100:00:1401:22:52.7501:23:07.05+00:08:092:2225.3
22HELMIN Robert 1042TYLPOL RACING TEAMBYDGOSZCZM43M 2200:00:2301:24:09.0001:24:32.65+00:09:342:2425
23ĆWIKŁA Sławomir 1130NAKŁO NAD NOTECIĄM44M 2300:00:0101:25:15.1501:25:16.40+00:10:182:2624.6
24ŚWITAJ Waldemar 1102SUPERCHIP PLŁOCHOWOM45M 2400:00:1101:25:05.8501:25:17.80+00:10:192:2524.7
25TROJANOWSKI Sławomir 1134MTB Eldar ŚwiecieŚWIECIEM313M 2500:00:0501:25:18.0501:25:23.30+00:10:252:2624.6
26LEWANDOWSKI Andrzej 1065POTULICEM52M 2600:00:3201:24:51.0001:25:23.85+00:10:262:2524.7
27PIOTROWSKI Dariusz 1120MTB ELDAR ŚWIECIEŚWIECIEM46M 2700:00:0601:25:25.1501:25:31.50+00:10:332:2624.6
28DEBA Bartek 1024MAŁOCINM26M 2800:00:1301:26:14.9001:26:27.95+00:11:302:2724.4
29BYDGOSZCZ Sebastian 1016BYDGOSZCZM47M 2900:00:0201:26:26.3001:26:28.45+00:11:302:2824.3
30SZYKOWNY Marcin 1100TARPOL TEAMBYDGOSZCZM48M 3000:00:2501:26:05.5001:26:30.70+00:11:322:2724.4
31BEJMA Sławomir 1004ŁOCHOWOM49M 3100:00:1201:26:31.0001:26:43.85+00:11:462:2824.3
32KWAŚNIEWSKI Krzysztof 1063Bart j-bikeŚWIECIEM314M 3200:00:0801:26:50.9001:26:59.75+00:12:012:2824.2
33SCHRÖDER Marcin 1089MTB ELDAR ŚWIECIEŚWIECIEM410M 3300:00:1601:26:55.3501:27:12.20+00:12:142:2924.2
34ORSZT Jarosław 1078TYLPOL RACING TEAMBYDGOSZCZM411M 3400:00:2701:26:54.3501:27:22.10+00:12:242:2924.2
35GUTH Mirosław 1041BYDGOSZCZM412M 3500:00:2101:27:02.7001:27:24.45+00:12:262:2924.1
36RUCIŃSKI Tymon 1141Skra Paterek IT-Ros TeamTURM27M 3600:00:0101:27:27.9501:27:29.15+00:12:312:2924
37FOGT Maciej 1127CB163KRUSZYNM315M 3700:00:2001:27:10.3001:27:30.90+00:12:332:2924.1
38ZUPA Wojciech 1116SISU-OWB teamBYDGOSZCZM53M 3800:00:0501:28:08.3001:28:13.55+00:13:152:3123.8
39RÓŻAŃSKI Kamil 10873GravityBYDGOSZCZM316M 3900:00:1001:29:39.3001:29:49.40+00:14:512:3323.4
40SEWASTIANOW Jacek 1090Toyota Kawisbike Słupsk MTB teamSŁAWNOM413M 4000:00:2601:29:24.4501:29:51.40+00:14:532:3323.5
41ZUREL Waldemar 1118RYPINM62M 4100:00:0801:29:45.8501:29:53.85+00:14:562:3323.4
42PAWLAK Artur 1080ZAMOŚĆM414M 4200:00:2401:29:58.2001:30:23.15+00:15:252:3423.3
43GAŁGAŃSKI Krzysztof 1034SISU-OWB teamOSIELSKOM415M 4300:00:1801:30:28.4001:30:47.05+00:15:492:3523.2
44BIELINSKA Hanna 1009WILCZEK31K 100:00:0701:30:42.4001:30:50.05+00:15:522:3523.1
45STAŁOWSKI Paweł 1097SIPIORYM317M 4400:00:1601:30:48.9501:31:05.85+00:16:082:3523.1
46JARZĄBEK Bartłomiej 1119GardenFlora MTB TeamKARSINM318M 4500:00:0501:31:03.9001:31:08.90+00:16:112:3623.1
47CHMURA Mariusz 1018Sara Workwear Wheel Brothers RacingGRUDZIADZM416M 4600:00:1101:31:26.2001:31:37.75+00:16:392:3623
48KRAIŃSKI Piotr 1057NAKŁOM417M 4700:00:2401:31:15.3501:31:39.50+00:16:412:3623
49KUBIACZYK Maciej 1061Chodzieskie Towarzystwo RoweroweCHODZIEŻM418M 4800:00:0701:31:33.9501:31:40.95+00:16:432:3622.9
50SMOLAREK Wojciech 1128BYDGOSZCZM419M 4900:00:2301:31:23.9001:31:47.55+00:16:492:3623
51DOBRZAŃSKI Dariusz 10263GravityBYDGOSZCZM28M 5000:00:1001:31:37.7001:31:48.45+00:16:502:3722.9
52KRYGER Jacek 1059H2OshopRYTELM420M 5100:00:2701:31:25.9001:31:53.45+00:16:552:3623
53IDZIKOWSKI Mariusz 1043H2OshopBYDGOSZCZM421M 5200:00:2401:31:29.1001:31:53.55+00:16:552:3623
54CHLEBOROWICZ Marcin 11443GravityBYDGOSZCZM319M 5300:00:0901:31:59.6501:32:09.40+00:17:112:3722.8
55BEDNARCZYK Arkadiusz 1002byle(do)jechaćSZCZECINM320M 5400:00:0801:32:37.2501:32:45.40+00:17:472:3822.7
56SZULC Marcin 1137Chyba MTB SzamocinLASKOWOM321M 5500:00:2201:32:29.6501:32:52.45+00:17:542:3822.7
57MARIAŃSKA Emilia 1072ZAMOSCK41K 200:00:0601:32:47.8001:32:54.05+00:17:562:3922.6
58WYSOCKI Maciej 1143Królowie LasuSOLEC KUJAWSKIM29M 5600:00:2001:33:05.0001:33:25.95+00:18:282:3922.6
59DUTKIEWICZ Maciej 1032NAKŁO NAD NOTECIĄM11M 5700:00:1701:33:09.7001:33:27.15+00:18:292:3922.5
60REINHOLZ Marian 1085ŚWIECIE TERESPOL POMORSKIM422M 5800:00:0901:33:35.8001:33:44.80+00:18:462:4022.4
61WIZNER Krzysztof 1110KORONOWOM63M 5900:00:2801:33:24.9001:33:53.15+00:18:552:4022.5
62KAMIŃSKA Agnieszka 1048SISU-OWB TEAMBYDGOSZCZK42K 300:00:0401:33:53.8001:33:58.75+00:19:002:4022.4
63WŁOCH Łukasz 1111BYDGOSZCZM322M 6000:00:2601:33:32.4501:33:59.10+00:19:012:4022.4
64DUTKIEWICZ Krzysztof 1031NAKŁO NAD NOTECIĄM423M 6100:00:1201:34:29.3501:34:42.20+00:19:442:4222.2
65BOROWICZ Sławomir 1012TARPOL TEAMDĄBROWA CHEŁMIŃSKAM424M 6200:00:2601:34:52.6001:35:18.75+00:20:202:4222.1
66DRABJEWSKI Paweł 1142Tkkf Wodnik WięcborkWIĘCBORKM323M 6300:00:1401:35:07.5001:35:22.10+00:20:242:4322.1
67NIKOŁAJCZYK Łukasz 1077BLACKRAM MTB ŚWIECIEŚWIECIEM425M 6400:00:3101:34:52.4501:35:23.45+00:20:252:4222.1
68KANIA Dariusz 1049ŻNINM426M 6500:00:1701:36:26.1501:36:43.90+00:21:462:4521.8
68LECH Krzysztof 1064K-bikeZŁOTÓWM426M 6500:00:2401:36:19.1001:36:43.90+00:21:462:4521.8
70DEKOWSKI Bartosz 1025BYDGOSZCZM324M 6700:00:1101:36:47.8001:36:59.65+00:22:012:4521.7
71JOŃCZYK Krzysztof 1047WRZEŚNICAM428M 6800:00:1101:36:48.7501:37:00.60+00:22:022:4521.7
72PEPLIŃSKI Daniel 1081BLACKRAM TEAM MTB ŚWIECIEŚWIECIEM429M 6900:00:3201:36:34.2501:37:06.30+00:22:082:4521.7
73SOBIESKI Mariusz 1094ŚwiecieŚWIECIEM430M 7000:00:0601:37:22.3001:37:29.20+00:22:312:4621.6
74CIRUG Artur 1022BYDGOSZCZM431M 7100:00:2801:37:11.6501:37:40.35+00:22:422:4621.6
75SZAMBURSKI Franciszek 1135M12M 7200:00:0601:37:52.6501:37:58.80+00:23:002:4721.5
76LICA Krzysztof 1066SISU-OWB teamBYDGOSZCZM54M 7300:00:1901:37:59.5001:38:18.50+00:23:202:4721.4
77GERLACH Waldemar 1035INOWROCŁAWM432M 7400:00:3501:38:06.3501:38:42.20+00:23:442:4821.4
78BEDNARCZYK Grzegorz 1003Byle/do/jechacDEBRZNOM64M 7500:00:0901:39:13.5501:39:23.50+00:24:252:5021.2
79NIESPODZIANY Adam 1076MTB Team Toyota UklejaPIŁAM210M 7600:00:2001:39:54.8501:40:15.75+00:25:172:5121
80STASZKIEWICZ Jakub 1099STASHKY TEAMBYDGOSZCZM13M 7700:00:3501:39:59.6001:40:35.10+00:25:372:5121
81BYCZYŃSKI Marek 1015ŻNINM433M 7800:00:1901:40:23.1501:40:42.95+00:25:452:5220.9
82HORAKOWSKI Andrzej 1125ŚWIECIEM434M 7900:00:0901:41:26.5001:41:35.55+00:26:372:5320.7
83CIERESZKO Paweł 1020Klub Turystyki Rowerowej 'Żegluga' NakłoNAKŁO NAD NOTECIĄM325M 8000:00:2201:41:13.8001:41:36.55+00:26:382:5320.7
84REINHOLZ Tomasz 1086MTB Eldrar ŚwiecieTERESPOL POMORSKIM211M 8100:00:1601:41:59.0001:42:15.30+00:27:172:5420.6
85ŁĄCZNY Jacek 1069Zakręceni na Stale Nova TradingOSIEK N/WISŁĄM55M 8200:00:3001:42:00.4501:42:30.95+00:27:332:5420.6
86KRASICKI Michał 1138Tkkf Wodnik WięcborkWITUNIAM326M 8300:00:1001:42:52.2001:43:02.75+00:28:042:5620.4
87CIESIELSKI Adam 1021NAKŁO NAD NOTECIĄM327M 8400:00:1801:42:46.6001:43:04.75+00:28:062:5620.4
88NIEMCZYK Robert 1075KAMIEŃ KRAJEŃSKIM435M 8500:00:1601:43:07.8501:43:24.30+00:28:262:5620.4
88GURZONEK Mateusz 1040Chodzieskie Towarzystwo RoqeroweCHODZIEŻM212M 8500:00:0301:43:20.4501:43:24.30+00:28:262:5720.3
90ŚMIGIEL Janusz 1136TURM213M 8700:00:2601:43:54.3501:44:21.05+00:29:232:5820.2
91KOZŁOWSKI Jerzy 1145SISU-OWB teamSZUBINM65M 8800:00:3001:45:20.3501:45:50.65+00:30:523:0019.9
92PÓŁCZYŃSKI Łukasz 1084H2OshopRYTELM214M 8900:00:2901:45:23.6001:45:53.10+00:30:553:0019.9
93DUSZYŃSKI Filip 1030BYDGOSZCZM436M 9000:00:3601:45:18.1001:45:54.75+00:30:563:0019.9
94STASZKIEWICZ Radosław 1098STASHKY TEAMBYDGOSZCZM56M 9100:00:3601:45:23.8001:46:00.75+00:31:023:0019.9
95RZYMIAŃSKI Pawel 1088Serwis Rowerowy AgmarROKIETNICAM437M 9200:00:0501:45:57.0001:46:02.60+00:31:043:0119.8
96TORZEWSKA Małgorzata 1103AMSports Bydgoszcz MTB TeamBYDGOSZCZK43K 400:00:0501:45:59.9501:46:05.85+00:31:083:0119.8
97KOWALCZYK Jerzy 1139KS SzosaM66M 9300:00:0401:46:44.3001:46:48.80+00:31:503:0219.7
98ZAREMBA Jacek 1115Luks Start NakłoWYSTĘPM328M 9400:00:1301:46:36.5001:46:49.80+00:31:513:0219.7
99GRATOWSKI Marcin 1038Gratosie TeamGRUDZIĄDZM438M 9500:00:1301:47:13.8501:47:27.65+00:32:293:0319.6
100PAPIEROWSKI Damian 1079Black Ram Team MTB ŚwiecieŚWIECIEM329M 9600:00:3301:47:00.8001:47:34.40+00:32:363:0319.6
101JAWORSKI Tomasz 1046BLACKRAM TEAM MTB ŚWIECIESULNOWOM330M 9700:00:2701:47:10.4501:47:38.15+00:32:403:0319.6
102BIAŁY Szymon 1008BYDGOSZCZM331M 9800:00:3001:47:08.1501:47:38.95+00:32:413:0319.6
103ZAKOŚCIELNY Krzysztof 1114WIĘCBORKM57M 9900:00:1401:47:39.0001:47:53.75+00:32:553:0419.5
104BŁAŻKO Paweł 1011Blackram Team MTB ŚwiecieŚWIECIEM332M 10000:00:3001:47:31.7501:48:01.95+00:33:043:0419.5
105BĄBKA Dariusz 1001WYSTĘPM439M 10100:00:1601:48:04.6001:48:20.60+00:33:223:0519.4
106CHABROS - ALEKSANDER Kinga 1017INOWROCŁAWK32K 500:00:3301:48:37.2001:49:10.20+00:34:123:0619.3
107PIECHNA Jarosław 1082ŚWIECIEM333M 10200:00:1001:49:55.5001:50:05.75+00:35:073:0819.1
108CZECHOWICZ Sebastian 1023CHODZIEŻM215M 10300:00:1701:51:45.6501:52:03.60+00:37:053:1118.8
109KONIEC Krzysztof 1054WKKW WIĘCBORKWIĘCBORKM440M 10400:00:0901:52:35.7501:52:44.85+00:37:473:1318.7
110MISUN-NOWAK Katarzyna 1074AMS TriathlonOSÓWIECK33K 600:00:3801:52:15.8501:52:54.30+00:37:563:1218.7
111JABŁOŃSKI Tomasz 1045CHYBA MTB SZAMOCINSZAMOCINM441M 10500:00:2601:53:12.8501:53:39.10+00:38:413:1418.5
112SOBIECHOWSKI Andrzej 1093BYDGOSZCZM334M 10600:00:2501:53:49.1501:54:14.80+00:39:163:1518.5
113GOSTOMCZYK Paweł 1037byle(do)jechaćSTARGARDM335M 10700:00:1101:54:38.2501:54:49.60+00:39:513:1618.3
114KASIERSKI Grzegorz 1050BydgoszczBYDGOSZCZM67M 10800:00:2901:54:37.3501:55:07.00+00:40:093:1618.3
115ŁAMEK Sebastian 1067kkws swiecieŚWIECIEM442M 10900:00:2001:55:51.0001:56:11.35+00:41:133:1818.1
116MICHALAK Marianna 1073ŚWIECIEK34K 700:00:1201:55:58.9001:56:11.65+00:41:133:1818.1
117ISKRZAK Adam 1044KIBOLSKI KSMUROWANA GOŚLINAM336M 11000:00:0902:00:44.4002:00:53.80+00:45:553:2617.4
118DRABJEWSKA Anna 1028Tkkf WODNIK WięcborkWIĘCBORKK35K 800:00:2202:00:57.2002:01:19.70+00:46:213:2717.4
119TRZECIAK-DUBERT Katarzyna 1106Chyba MTB SzamocinSZAMOCINK36K 900:00:0802:01:30.9002:01:39.00+00:46:413:2817.3
120SOKOŁOWSKA Hanna 1095GORZEŃK51K 1000:00:3902:01:14.6002:01:54.50+00:46:563:2717.3
121ŁASSA Piotr 1068MTB WyrzyskWYRZYSKM337M 11100:00:3102:02:13.6002:02:45.55+00:47:473:2917.2
122WINKLEWSKI Krzysztof 1109SOLEC KUJAWSKIM443M 11200:00:3902:02:44.1502:03:23.65+00:48:253:3017.1
123SKRZĄTEK Anna 1092PRZYLĘKIK44K 1100:00:2402:03:28.5502:03:52.55+00:48:543:3117
124KĄKOL Patrycja 1051POTULICEK21K 1200:00:3202:04:35.2002:05:07.45+00:50:093:3316.9
125KOWALCZYK Marcin 1140Dali DaliM338M 11300:00:1502:07:26.6502:07:42.35+00:52:443:3816.5
126BRZOZOWSKA Jolanta 1013BYDGOSZCZK45K 1300:00:1902:07:44.4002:08:03.75+00:53:053:3816.4
127BRZOZOWSKI Marek 1014BYDGOSZCZM58M 11400:00:2102:07:43.2502:08:05.10+00:53:073:3816.4
128KRUTUL Kasia 1058SIENNOK46K 1400:00:3802:09:43.3502:10:21.65+00:55:233:4216.2
129DOLECKI Łukasz 1027Funbike ToruńTORUŃM339M 11500:00:2802:10:07.8002:10:36.05+00:55:383:4316.1
130TUREK Marta 1126TRIBA Bosir BarcinŻNINK22K 1500:00:2202:10:20.9002:10:43.55+00:55:453:4316.1
131WYPYCH Paweł 1112Pędzące ŻółwieTURM444M 11600:00:2102:10:53.3502:11:14.35+00:56:163:4416
132KNIOŁA Tomasz 1052BYDGOSZCZM59M 11700:00:3702:11:24.7002:12:01.95+00:57:043:4516
133DOLATA Jakub 1122Rio GorąBYDGOSZCZM445M 11800:00:3402:12:36.2002:13:10.60+00:58:123:4715.8
134DOLATA Magdalena 1123Rio GoraRYNARZEWOK37K 1600:00:3402:13:34.8002:14:09.15+00:59:113:4915.7
135WYPYCH Eryk 1113TURM216M 11900:00:1902:16:28.1502:16:47.95+01:01:503:5315.4
136STAŁOWSKA Agnieszka 1096SIPIORYK38K 1700:00:1402:21:30.4002:21:45.35+01:06:474:0214.8
137SKIBA Rafał 1091CHYBA MTB SZAMOCINSZAMOCINM446M 12000:00:2602:28:41.1502:29:07.35+01:14:094:1414.1
138CHYŁA Mariusz 1019Zorza ŚlesinŚLESINM340M 12100:00:3202:28:36.6002:29:08.85+01:14:114:1414.1
139ŚLĄSKA Angelika 1101ŚWIECIEK39K 1800:00:1602:33:13.0002:33:29.30+01:18:314:2213.7
140KOŁODZIEJ Piotr 1053BYDGOSZCZM341M 12200:00:3402:35:56.0502:36:31.00+01:21:334:2713.5
141PIECZYŃSKA Joanna 1083BYDGOSZCZK310K 1900:00:3402:35:57.0002:36:31.25+01:21:334:2713.5
Znaleziono 141 wynik(ów)